Create Custom Reports and Graphics: Custom Report

Latest Observations

Map

15 Minute Data

Latest Observation

39 Stations

15 Minute Data | America/Los_Angeles
as of 5/18/22 9:23 PM PDT
Station Date Time Temp (°F) RH (%) Dew Pt (°F) Wind Dir (°) Wind Spd (mph) Wind Gust (mph) Solar Rad (W/m2) Latest Rain (In) Daily Rain (In) Daily Max Temp (°F) Daily Min Temp (°F) Daily Max Wind (mph) Daily ETo (in) Daily Leaf Wet Hrs (hrs)
Colony 1 5/18/22 2115 72.8   8.3 45   10 50.2   2.2 WSW | 237 1.0   1.2 3.7   1.0 0   0 0.00 0.00 98.3   6.9 47.6   0.5 19.1   2.4 0.279   0.036 -
Colony 2 5/18/22 2115 74.0   7.8 50   1 54.4   7.5 W | 263 2.9   0.4 4.5   0.5 0   0 0.00 0.00 97.8   7.6 47.7   0.1 16.3   2.5 0.269   0.014 -
5 Wells 5/18/22 2115 75.2   9.5 46   4 52.9   6.2 WNW | 286 3.0   2.0 4.4   1.7 3   3 0.00 0.00 96.7   7.3 46.6   0.7 19.3   1.0 0.283   0.023 -
Simmerhorn 5/18/22 2115 75.2   10.2 45   8 52.7   5.0 - - - - - - 96.0   6.9 47.8   1.5 - - -
Galt-East 5/18/22 2115 75.4   6.3 48   4 54.2   8.3 E | 79 3.9   0.4 5.3   2.8 0   0 0.00 0.00 95.8   7.5 48.7   0.9 16.5   0.8 0.255   0.020 -
Borden Hills 5/18/22 2115 78.0   10.9 37   15 49.4   0.8 WNW | 292 5.0   2.1 7.1   3.0 0   0 0.00 0.00 96.5   5.8 48.7   1.4 17.0   2.1 0.261   0.013 -
Sierra Loma-L27 5/18/22 2115 78.2   13.9 37   24 49.5   1.1 WSW | 245 3.9   2.3 5.9   3.7 - 0.00 0.00 96.5   6.0 49.7   1.6 16.9   0.6 - -
Lockeford 5/18/22 2115 75.4   6.7 49   4 55.0   8.6 W | 263 3.9   0.4 7.4   2.0 0   0 0.00 0.00 95.6   8.7 46.6   1.1 14.8   3.4 0.237   0.016 3.4   0.8
Lone Oak-L28 5/18/22 2115 69.5   11.1 59   24 54.4   1.1 ENE | 71 3.1   1.1 4.6   2.1 - 0.00 0.00 96.2   9.2 45.8   1.9 15.4   4.5 - -
Kost Rd 5/18/22 2115 75.7   7.2 50   2 55.6   7.7 W | 278 2.8   0.8 5.6   0.8 0   0 0.00 0.00 97.7   9.1 45.9   0.1 16.4   1.1 0.246   0.022 -
Thornton 5/18/22 2115 76.2   7.4 47   3 54.4   8.3 WNW | 287 2.5   1.4 5.1   1.7 0   0 0.00 0.00 96.6   8.4 46.6   0.2 18.8   2.4 0.299   0.028 0.0   0.0
Lodi (LangeTwins) 5/18/22 2115 76.8   9.3 47   2 55.4   7.6 W | 274 2.6   0.0 5.1   0.3 0   0 0.00 0.00 98.0   8.8 48.6   0.5 16.2   3.4 0.242   0.013 0.1   0.1
Gilbeau Ranch 5/18/22 2115 76.8   7.8 41   1 51.7   7.8 W | 278 2.4   0.2 5.4   0.6 0   0 0.00 0.00 97.3   9.0 46.6   0.0 15.0   0.8 0.228   0.008 -
Galt West 5/18/22 2115 72.0   5.0 56   5 55.7   7.1 W | 259 2.1   2.2 3.7   3.9 0   0 0.00 0.00 96.8   8.8 46.0   0.3 17.4   0.6 0.254   0.021 -
Valley Oak 5/18/22 2115 76.3   7.8 44   2 52.7   8.0 W | 272 3.1   1.0 4.7   2.1 0   0 0.00 0.00 99.5   12.0 46.3   1.6 15.4   1.3 0.249   0.017 -
Guard Rd (Lodi WSW) 5/18/22 2115 74.1   6.7 49   1 53.9   6.9 W | 268 5.5   0.1 10.4   1.0 0   0 0.00 0.00 94.2   9.3 44.6   2.1 15.1   2.2 0.261   0.022 0.0   0.0
Linden 5/18/22 2115 71.6   6.3 57   1 55.5   6.2 WNW | 283 1.7   0.7 3.9   1.1 - 0.00 0.00 94.2   6.1 47.0   3.5 14.7   2.1 - 1.1   5.6
DeVries Road-North 5/18/22 2115 74.9   7.9 50   1 55.2   7.5 WNW | 282 2.0   1.0 4.0   1.8 0   0 0.00 0.00 96.9   8.5 44.5   0.3 15.6   1.8 0.253   0.019 -
Acampo 5/18/22 2115 72.9   3.2 48   12 52.2   10.5 N | 0 0.0   3.8 0.0   8.8 0   0 - 0.00 96.1   8.2 47.0   0.3 15.2   2.0 0.194   0.028 14.3   1.3
Acampo (Woodbridge) 5/18/22 2115 73.8   4.5 49   8 53.4   8.8 W | 266 4.9   3.3 7.7   5.3 0   0 0.00 0.00 95.4   9.9 48.2   1.0 19.6   0.4 0.281   0.027 -
Lodi West 5/18/22 2115 75.9   5.6 43   5 51.8   8.2 WNW | 287 3.7   0.1 8.8   4.2 0   0 0.00 0.00 96.6   8.1 52.5   4.6 14.9   5.3 0.234   0.014 20.3   5.4
Teresi-Alpine Rd (East Lodi) 5/18/22 2115 78.4   7.1 39   2 51.7   8.0 W | 278 5.6   2.3 10.3   4.6 0   0 0.00 0.00 96.8   8.0 48.2   1.1 19.3   1.0 0.286   0.022 -
Victor - N (Katusha) 5/18/22 2115 77.1   6.6 40   4 50.8   8.8 NW | 308 2.6   1.9 5.4   5.7 - 0.00 0.00 96.5   8.0 46.4   1.1 - - -
Live Oak 5/18/22 2115 75.6   4.9 46   6 53.1   8.0 W | 267 4.0   1.3 6.3   2.8 0   0 0.00 0.00 95.2   6.3 50.9   7.2 14.9   3.4 0.253   0.014 -
Sheldon 5/18/22 2115 82.3   18.8 26   33 43.6   5.0 NNW | 330 3.9   2.9 8.4   5.0 0   0 0.00 0.00 96.5   5.6 46.2   0.3 17.8   1.0 0.274   0.028 0.0   1.1
Sloughhouse 5/18/22 2115 83.5   18.3 23   30 42.0   5.8 NNW | 336 4.1   3.1 10.8   7.7 0   0 0.00 0.00 96.9   4.9 44.8   0.5 20.2   2.7 0.267   0.027 -
Utter - Wilson 5/18/22 2115 72.9   6.0 49   8 52.8   1.7 WSW | 250 1.4   3.5 2.6   7.5 0   0 0.00 0.00 100.1   7.0 51.5   2.5 19.3   5.5 0.271   0.041 -
Clarksburg 5/18/22 2115 75.2   7.2 42   7 50.4   2.1 SW | 230 1.5   2.9 2.5   6.7 0   0 0.00 0.00 100.2   9.0 53.6   3.7 17.7   1.6 0.280   0.028 -
Clarksburg-3A2 5/18/22 2115 71.9   5.1 56   3 55.5   6.4 W | 280 2.0   6.2 3.1   8.0 0   0 0.00 0.00 98.7   9.1 52.6   2.6 21.5   2.1 0.309   0.044 -
Gorter - Wilson 5/18/22 2115 69.6   3.3 55   0 52.8   3.2 WNW | 284 1.3   4.2 2.6   6.9 0   0 0.00 0.00 99.2   8.6 49.6   5.6 20.7   1.4 0.240   0.029 -
Hood 5/18/22 2115 70.5   2.8 61   9 56.3   7.0 W | 276 1.3   3.7 2.5   6.6 0   0 0.00 0.00 96.5   8.2 53.6   7.9 16.6   1.1 0.249   0.008 -
Courtland-C3 5/18/22 2115 76.3   9.2 49   3 55.8   6.6 WSW | 254 1.7   4.4 4.5   6.9 - 0.00 0.00 98.3   9.8 53.4   3.4 18.0   1.8 - -
Pacific Fruit 5/18/22 2115 75.1   8.1 54   0 57.2   7.4 WNW | 284 2.2   5.8 4.6   8.0 0   0 0.00 0.00 98.4   11.2 56.1   3.6 17.2   3.5 0.259   0.016 -
Ryer Island South 5/18/22 2100 77.5   9.4 41   3 52.0   6.6 WSW | 258 4.2   3.4 7.8   6.7 0   0 0.00 0.00 95.9   10.0 57.7   3.7 17.8   1.3 0.273   0.024 0.0   0.0
Farmington (Mobley100) 5/18/22 2115 74.1   4.8 52   10 55.2   10.1 WNW | 296 0.6   0.2 2.9   0.0 - - - 89.4   3.7 49.4   4.3 8.6   1.7 - -
Collegeville 5/18/22 2115 79.3   11.1 39   6 52.2   6.1 W | 262 1.6   0.2 6.7   2.4 0   0 0.00 0.00 94.4   5.8 46.7   1.3 13.2   0.1 0.243   0.016 -
Oakdale North (28 Mile Rd) 5/18/22 2115 75.4   6.9 46   9 53.0   1.7 NNE | 13 0.8   0.8 3.7   2.5 - - - 90.2   5.3 50.5   0.1 9.2   2.7 - -
Escalon 5/18/22 2115 78.5   7.5 41   2 52.9   8.3 WNW | 297 3.4   0.1 6.4   0.6 - 0.00 0.00 93.4   6.7 50.3   0.9 13.3   3.8 - 0.0   0.0
Claussen 5/18/22 2115 78.8   9.6 39   5 51.7   5.2 W | 266 5.5   0.3 11.2   1.0 0   0 0.00 0.00 94.2   5.9 50.3   1.6 16.4   4.1 0.269   0.013 -
Max     83.5 61 57.2 - 5.6 11.2 3 0.00 0.00 100.2 57.7 21.5 0.309 20.3
Avg     75.4 46 52.8 - 2.8 5.5 0 0.00 - - - - - -
Min     69.5 23 42.0 - 0.0 0.0 0 0.00 0.00 89.4 44.5 8.6 0.194 0.0

Latest Observations

Map

Hourly Data